This is the latest recevied weather packets stored in our database for station/object M0TJX-1. If no packets are shown the sender has not sent any weather packets the latest 1 day(s).
| Time | Temp. | Humidity | Pressure | Rain* | Wind** | Luminosity | Snow |
|---|---|---|---|---|---|---|---|
| 1778100193 | 9.44° C | 68% | 1014.7 hPa | 0 mm | - | - | - |
| 1778099293 | 10° C | 66% | 1014.5 hPa | 0 mm | - | - | - |
| 1778098393 | 10.56° C | 63% | 1014.5 hPa | 0 mm | - | - | - |
| 1778097493 | 11.11° C | 62% | 1014.2 hPa | 0 mm | - | - | - |
| 1778096593 | 11.67° C | 61% | 1014.1 hPa | 0 mm | - | - | - |
| 1778094793 | 12.22° C | 57% | 1014 hPa | 0 mm | - | - | - |
| 1778092993 | 12.78° C | 56% | 1013.8 hPa | 0 mm | - | - | - |
| 1778092093 | 13.33° C | 54% | 1013.9 hPa | 0 mm | - | - | - |
| 1778091193 | 13.33° C | 53% | 1013.8 hPa | 0 mm | - | - | - |
| 1778087593 | 15° C | 49% | 1013.5 hPa | 0 mm | - | - | - |
| 1778086693 | 15.56° C | 48% | 1013.5 hPa | 0 mm | - | - | - |
| 1778084893 | 16.67° C | 46% | 1013.4 hPa | 0 mm | - | - | - |
| 1778083993 | 16.11° C | 48% | 1013.5 hPa | 0 mm | - | - | - |
| 1778052494 | 8.33° C | 77% | 1014.5 hPa | 0 mm | - | - | - |
| 1778051594 | 8.33° C | 77% | 1014.3 hPa | 0 mm | - | - | - |
| 1778050694 | 7.78° C | 78% | 1014.2 hPa | 0 mm | - | - | - |
| 1778049794 | 7.78° C | 79% | 1014.2 hPa | 0 mm | - | - | - |
| 1778048894 | 7.78° C | 78% | 1014.1 hPa | 0 mm | - | - | - |
| 1778047994 | 7.78° C | 79% | 1014.1 hPa | 0 mm | - | - | - |
| 1778047094 | 7.78° C | 79% | 1014 hPa | 0 mm | - | - | - |
| 1778046194 | 7.78° C | 80% | 1014 hPa | 0 mm | - | - | - |
| 1778045294 | 7.78° C | 82% | 1013.9 hPa | 0 mm | - | - | - |
| 1778044394 | 7.78° C | 85% | 1014 hPa | 0 mm | - | - | - |
| 1778043494 | 8.33° C | 84% | 1013.9 hPa | 0 mm | - | - | - |
| 1778042594 | 8.33° C | 83% | 1013.8 hPa | 0 mm | - | - | - |
* Rain latest hour (hover to see other rain measurements)
** Current wind speed in m/s (hover to see current wind gust speed)